Time;durP1;ratioP1;P1;durP2;ratioP2;P2;SDS_P1;SDS_P2;PMS_P1;PMS_P2;Temp;Humidity;BMP_temperature;BMP_pressure;BME280_temperature;BME280_humidity;BME280_pressure;Samples;Min_cycle;Max_cycle;Signal;HPM_P1;HPM_P2
2021/09/25 00:02:23;;;;;;;9.63;5.43;;;16.60;73.80;;;16.24;59.14;95122.69;5019886;28;20660;-82
2021/09/25 00:04:50;;;;;;;5.50;4.97;;;16.50;73.70;;;16.19;58.67;95129.69;5053305;28;20203;-82
2021/09/25 00:07:17;;;;;;;6.40;5.22;;;16.50;73.60;;;16.11;58.85;95128.94;5036185;28;20217;-82
2021/09/25 00:09:45;;;;;;;6.13;4.82;;;16.40;73.50;;;16.05;59.01;95127.19;5020080;28;20223;-82
2021/09/25 00:12:14;;;;;;;8.32;5.60;;;16.40;73.50;;;15.98;58.96;95126.47;5069442;28;20224;-82
2021/09/25 00:14:42;;;;;;;5.93;5.13;;;16.40;73.70;;;15.92;58.75;95127.34;5036208;28;20306;-82
2021/09/25 00:17:12;;;;;;;5.60;5.07;;;16.40;73.60;;;15.83;58.87;95124.97;5036193;28;20693;-82
2021/09/25 00:19:41;;;;;;;6.47;5.35;;;16.20;73.60;;;15.82;59.45;95138.41;5035883;28;20190;-82
2021/09/25 00:22:08;;;;;;;10.82;5.78;;;16.20;73.70;;;15.75;59.42;95125.22;5052673;28;20261;-82
2021/09/25 00:24:36;;;;;;;6.32;5.72;;;16.10;73.80;;;15.73;60.15;95129.13;5052739;28;20790;-82
2021/09/25 00:27:03;;;;;;;7.07;5.63;;;16.10;73.90;;;15.70;59.86;95122.44;5015000;28;20293;-82
2021/09/25 00:29:31;;;;;;;6.25;5.22;;;16.00;73.90;;;15.66;59.72;95127.34;5016327;28;20568;-82
2021/09/25 00:31:59;;;;;;;6.30;5.47;;;16.00;74.00;;;15.63;59.81;95119.03;5016443;28;20474;-82
2021/09/25 00:34:26;;;;;;;6.60;5.60;;;16.00;74.20;;;15.64;59.67;95125.94;5025542;28;20207;-82
2021/09/25 00:36:54;;;;;;;5.88;5.28;;;16.00;74.30;;;15.59;59.62;95121.31;5015859;28;20231;-82
2021/09/25 00:39:21;;;;;;;5.95;5.32;;;15.90;74.10;;;15.59;59.60;95121.31;4999720;28;20224;-82
2021/09/25 00:41:48;;;;;;;5.40;4.82;;;15.90;74.10;;;15.55;59.54;95120.13;5018367;28;20222;-82
2021/09/25 00:44:15;;;;;;;6.95;5.63;;;15.90;74.10;;;15.53;59.93;95127.47;5035895;28;20286;-82
2021/09/25 00:46:43;;;;;;;5.80;5.30;;;15.90;74.20;;;15.48;60.13;95122.84;5035813;28;20318;-82
2021/09/25 00:49:18;;;;;;;7.60;5.63;;;15.80;74.20;;;15.44;59.58;95119.00;5052153;28;20701;-82
2021/09/25 00:51:47;;;;;;;5.70;5.10;;;15.80;74.50;;;15.42;60.05;95123.69;5051937;28;20277;-82
2021/09/25 00:54:16;;;;;;;6.72;5.70;;;15.70;74.20;;;15.39;60.05;95120.69;5034071;28;20231;-82
2021/09/25 00:56:45;;;;;;;8.00;5.65;;;15.80;74.40;;;15.36;59.83;95119.28;5035476;28;20641;-82
2021/09/25 00:59:12;;;;;;;5.78;5.05;;;15.70;74.30;;;15.34;60.00;95121.31;5052283;28;20191;-82
2021/09/25 01:01:42;;;;;;;5.40;4.75;;;15.70;74.30;;;15.29;59.86;95114.03;5042762;28;20693;-82
2021/09/25 01:04:10;;;;;;;5.30;4.78;;;15.60;74.30;;;15.21;59.74;95114.34;5031988;28;20197;-82
2021/09/25 01:06:38;;;;;;;6.10;5.05;;;15.60;74.30;;;15.20;59.81;95113.50;5031947;28;20262;-82
2021/09/25 01:09:07;;;;;;;5.57;4.90;;;15.50;74.20;;;15.16;60.22;95114.16;5031751;28;20229;-82
2021/09/25 01:11:35;;;;;;;8.48;5.32;;;15.60;74.30;;;15.07;59.76;95118.09;5032773;28;20227;-82
2021/09/25 01:14:03;;;;;;;6.25;5.25;;;15.50;74.30;;;14.98;60.23;95105.16;5015323;28;20189;-82
2021/09/25 01:16:30;;;;;;;6.60;5.90;;;15.50;74.30;;;14.92;60.09;95103.38;5031617;28;20314;-82
2021/09/25 01:18:58;;;;;;;7.13;5.65;;;15.40;74.40;;;14.88;60.13;95100.34;5015473;28;20196;-82
2021/09/25 01:21:25;;;;;;;8.05;5.45;;;15.40;74.40;;;14.87;60.39;95108.47;5034755;28;20227;-82
2021/09/25 01:23:53;;;;;;;8.90;4.85;;;15.30;74.40;;;14.82;60.21;95113.59;5049793;28;20275;-82
2021/09/25 01:26:20;;;;;;;6.47;4.93;;;15.30;74.50;;;14.76;60.29;95104.69;5049041;28;20219;-82
2021/09/25 01:28:48;;;;;;;6.25;5.53;;;15.20;74.50;;;14.72;60.44;95114.88;5015478;28;20709;-81
2021/09/25 01:31:15;;;;;;;5.45;4.93;;;15.20;74.60;;;14.70;60.40;95108.97;5031448;28;20246;-82
2021/09/25 01:33:48;;;;;;;6.15;5.07;;;15.10;74.60;;;14.67;60.53;95113.88;5050275;28;20680;-82
2021/09/25 01:36:16;;;;;;;5.90;5.30;;;15.10;74.90;;;14.66;60.87;95120.16;5051404;28;20239;-82
2021/09/25 01:38:44;;;;;;;7.00;5.28;;;15.10;75.00;;;14.62;60.71;95109.19;5018710;28;20286;-82
2021/09/25 01:41:12;;;;;;;5.85;5.03;;;15.10;75.00;;;14.61;60.86;95117.34;5034691;28;20231;-82
2021/09/25 01:43:39;;;;;;;7.22;5.15;;;15.00;75.00;;;14.63;60.74;95121.38;5030755;28;20192;-81
2021/09/25 01:46:07;;;;;;;6.85;5.60;;;15.00;75.10;;;14.63;61.23;95124.00;5034700;28;20588;-82
2021/09/25 01:48:34;;;;;;;6.03;5.28;;;15.00;75.20;;;14.64;60.78;95124.84;5051627;28;20712;-81
2021/09/25 01:51:02;;;;;;;5.93;5.32;;;15.00;75.20;;;14.65;61.24;95126.47;5030964;28;20262;-81
2021/09/25 01:53:30;;;;;;;6.78;5.47;;;15.00;75.30;;;14.60;61.02;95116.53;5030960;28;20220;-81
2021/09/25 01:56:11;;;;;;;5.95;5.35;;;14.90;75.30;;;14.65;60.88;95118.56;5031203;28;20220;-82
2021/09/25 01:58:41;;;;;;;5.97;5.20;;;14.90;75.70;;;14.63;61.08;95118.75;5015280;28;20203;-82
2021/09/25 02:01:10;;;;;;;6.43;5.30;;;14.90;75.30;;;14.65;60.76;95113.25;5030927;28;20281;-81
2021/09/25 02:03:37;;;;;;;6.53;5.70;;;15.00;75.40;;;14.64;60.83;95123.00;5034821;28;20194;-82
2021/09/25 02:06:08;;;;;;;5.47;4.97;;;14.90;75.30;;;14.62;61.01;95125.03;5050898;28;20663;-82
2021/09/25 02:08:37;;;;;;;5.60;5.00;;;15.00;75.50;;;14.64;61.06;95122.19;5034851;28;20199;-82
2021/09/25 02:11:05;;;;;;;6.68;5.60;;;14.90;75.40;;;14.64;61.11;95124.84;5031148;28;20226;-82
2021/09/25 02:13:33;;;;;;;6.03;5.15;;;15.00;75.50;;;14.64;61.27;95122.19;5019952;28;20206;-82
2021/09/25 02:16:01;;;;;;;6.60;5.65;;;14.90;75.50;;;14.62;61.42;95114.47;5014796;28;20235;-81
2021/09/25 02:18:28;;;;;;;6.07;5.45;;;14.90;75.60;;;14.66;61.70;95118.34;5031055;28;20231;-82
2021/09/25 02:20:56;;;;;;;7.75;5.45;;;14.90;75.60;;;14.68;61.48;95124.25;5047529;28;20279;-82
2021/09/25 02:23:23;;;;;;;6.07;5.47;;;15.00;75.70;;;14.66;61.10;95122.81;5047340;28;20719;-81
2021/09/25 02:25:51;;;;;;;6.15;5.55;;;14.90;75.60;;;14.65;61.17;95121.19;5050795;28;20222;-82
2021/09/25 02:28:18;;;;;;;5.95;4.88;;;15.00;75.60;;;14.63;61.46;95120.59;5034298;28;20203;-82
2021/09/25 02:30:46;;;;;;;6.07;5.47;;;14.90;75.50;;;14.58;61.14;95119.38;5018264;28;20219;-81
2021/09/25 02:33:13;;;;;;;5.90;4.65;;;14.90;75.50;;;14.56;60.81;95110.88;5048822;28;20206;-82
2021/09/25 02:35:41;;;;;;;5.93;4.38;;;15.00;75.40;;;14.51;60.71;95120.44;5050803;28;20235;-82
2021/09/25 02:38:10;;;;;;;5.60;5.10;;;15.00;75.40;;;14.46;61.40;95105.22;5034701;28;20195;-81
2021/09/25 02:40:38;;;;;;;6.00;5.40;;;14.90;75.40;;;14.41;61.15;95108.53;5033418;28;20223;-82
2021/09/25 02:43:05;;;;;;;5.82;5.00;;;14.80;75.40;;;14.37;61.50;95103.88;5047606;28;20220;-81
2021/09/25 02:45:34;;;;;;;6.28;5.13;;;14.80;75.40;;;14.32;61.50;95101.03;5030700;28;20224;-82
2021/09/25 02:48:03;;;;;;;5.25;4.75;;;14.80;75.50;;;14.33;61.34;95102.66;5014479;28;20208;-82
2021/09/25 02:50:31;;;;;;;6.00;5.40;;;14.70;75.50;;;14.30;61.71;95111.00;5034917;28;20208;-82
2021/09/25 02:52:58;;;;;;;6.43;5.30;;;14.70;75.60;;;14.29;61.89;95110.19;5045885;28;20636;-82
2021/09/25 02:55:25;;;;;;;7.53;5.53;;;14.60;75.60;;;14.27;61.08;95106.97;5018051;28;20305;-81
2021/09/25 02:57:52;;;;;;;5.82;5.13;;;14.60;75.60;;;14.23;61.77;95111.84;5018123;28;20199;-82
2021/09/25 03:00:22;;;;;;;6.68;5.10;;;14.70;75.70;;;14.22;61.64;95119.94;5018314;28;20192;-81
2021/09/25 03:02:49;;;;;;;5.55;5.00;;;14.60;75.70;;;14.17;61.10;95119.78;5018919;28;20553;-80
2021/09/25 03:05:18;;;;;;;4.95;4.45;;;14.60;75.60;;;14.11;61.41;95112.69;5034284;28;20206;-82
2021/09/25 03:07:45;;;;;;;5.05;4.53;;;14.60;75.50;;;14.05;61.21;95120.44;5026114;28;20204;-81
2021/09/25 03:10:12;;;;;;;5.25;4.50;;;14.50;75.50;;;14.01;61.43;95116.59;5034033;28;20286;-82
2021/09/25 03:12:40;;;;;;;5.50;4.95;;;14.40;75.40;;;13.97;61.49;95117.22;5001782;28;20576;-82
2021/09/25 03:15:09;;;;;;;5.50;5.00;;;14.40;75.50;;;13.91;61.64;95111.75;5033986;28;20720;-82
2021/09/25 03:17:36;;;;;;;5.40;4.90;;;14.40;75.60;;;13.85;61.73;95109.94;5036841;28;20657;-81
2021/09/25 03:20:06;;;;;;;5.93;4.72;;;14.30;75.60;;;13.82;61.61;95118.25;5051022;28;20198;-81
2021/09/25 03:22:34;;;;;;;5.82;4.72;;;14.30;75.70;;;13.77;62.34;95110.19;5048334;28;20378;-81
2021/09/25 03:25:06;;;;;;;5.82;5.22;;;14.30;75.70;;;13.71;61.55;95106.53;5036459;28;20246;-81
2021/09/25 03:27:36;;;;;;;5.88;5.28;;;14.20;75.70;;;13.69;61.94;95110.38;5033185;28;20632;-81
2021/09/25 03:30:07;;;;;;;5.38;4.88;;;14.20;75.90;;;13.66;61.98;95110.78;5050576;28;20294;-81
2021/09/25 03:32:34;;;;;;;5.20;4.57;;;14.10;76.00;;;13.61;62.04;95103.53;5044042;28;20243;-81
2021/09/25 03:35:03;;;;;;;5.40;4.90;;;14.10;75.90;;;13.63;62.03;95108.56;5050579;28;20187;-82
2021/09/25 03:37:30;;;;;;;5.65;4.93;;;14.10;76.00;;;13.61;62.01;95104.31;5036762;28;20219;-81
2021/09/25 03:39:58;;;;;;;6.45;5.00;;;14.10;76.10;;;13.61;62.13;95109.59;5037312;28;20274;-81
2021/09/25 03:42:25;;;;;;;5.72;5.13;;;14.00;76.20;;;13.58;62.18;95102.06;5018123;28;20262;-81
2021/09/25 03:44:52;;;;;;;6.55;5.22;;;14.00;76.30;;;13.66;62.34;95105.50;5039127;28;20235;-81
2021/09/25 03:47:19;;;;;;;7.05;5.45;;;14.10;76.50;;;13.65;62.53;95104.72;5032901;28;20216;-82
2021/09/25 03:49:46;;;;;;;7.30;5.22;;;14.00;76.50;;;13.64;62.45;95103.09;5045308;28;20297;-81
2021/09/25 03:52:14;;;;;;;5.68;5.07;;;14.00;76.60;;;13.64;62.26;95097.03;5035180;28;20598;-81
2021/09/25 03:54:41;;;;;;;6.78;5.20;;;14.00;76.50;;;13.66;62.41;95105.50;5012637;28;20232;-82
2021/09/25 03:57:08;;;;;;;5.95;5.32;;;14.10;76.70;;;13.68;62.19;95106.13;5017357;28;20575;-82
2021/09/25 03:59:36;;;;;;;5.40;4.90;;;14.00;76.70;;;13.68;62.29;95101.66;5046284;28;20206;-81
2021/09/25 04:02:03;;;;;;;5.95;4.82;;;14.00;76.70;;;13.68;62.52;95100.84;5029037;28;20281;-82
2021/09/25 04:04:30;;;;;;;5.57;4.97;;;14.00;76.70;;;13.68;62.34;95106.94;5013636;28;20180;-82
2021/09/25 04:06:58;;;;;;;5.70;5.07;;;14.00;76.70;;;13.67;62.37;95105.34;5013696;28;20231;-82
2021/09/25 04:09:25;;;;;;;6.30;4.60;;;14.00;76.70;;;13.66;62.31;95106.34;5015735;28;20293;-82
2021/09/25 04:11:53;;;;;;;5.05;4.55;;;14.00;76.70;;;13.66;62.34;95098.44;5017129;28;20228;-80
2021/09/25 04:14:21;;;;;;;5.88;4.40;;;14.00;76.80;;;13.67;62.42;95101.88;5032933;28;20196;-82
2021/09/25 04:16:48;;;;;;;4.97;4.47;;;14.00;76.90;;;13.67;62.53;95099.22;5016149;28;20615;-82
2021/09/25 04:19:16;;;;;;;7.13;4.53;;;14.00;76.90;;;13.69;62.60;95110.38;5016504;28;20199;-81
2021/09/25 04:21:43;;;;;;;5.38;4.88;;;14.10;77.00;;;13.73;62.69;95109.78;5016372;28;20228;-82
2021/09/25 04:24:10;;;;;;;6.20;4.57;;;14.10;77.10;;;13.71;63.00;95105.72;5016648;28;20184;-81
2021/09/25 04:26:38;;;;;;;4.95;4.45;;;14.10;77.10;;;13.74;62.76;95113.22;5032424;28;20223;-82
2021/09/25 04:29:05;;;;;;;5.80;5.10;;;14.00;77.00;;;13.74;62.26;95126.38;5016275;28;20224;-81
2021/09/25 04:31:34;;;;;;;9.95;7.53;;;14.10;76.80;;;13.69;62.26;95123.56;5036628;28;20211;-81
2021/09/25 04:34:03;;;;;;;9.75;7.68;;;14.10;76.50;;;13.63;62.18;95129.66;5036006;28;20700;-81
2021/09/25 04:36:31;;;;;;;10.35;8.00;;;14.00;76.30;;;13.55;62.11;95130.66;5035987;28;20255;-82
2021/09/25 04:39:00;;;;;;;9.82;7.60;;;14.00;76.10;;;13.45;61.97;95129.28;5035961;28;20293;-81
2021/09/25 04:41:27;;;;;;;7.43;6.47;;;13.90;76.00;;;13.37;62.15;95133.91;5031531;28;20314;-81
2021/09/25 04:43:54;;;;;;;7.07;4.90;;;13.90;76.70;;;13.28;62.00;95134.13;5039517;28;20238;-82
2021/09/25 04:46:21;;;;;;;6.65;4.93;;;13.90;75.90;;;13.19;62.07;95135.31;5031981;28;20573;-81
2021/09/25 04:48:48;;;;;;;4.50;4.10;;;13.70;75.70;;;13.12;61.96;95145.03;5032540;28;20626;-81
2021/09/25 04:51:17;;;;;;;4.60;4.20;;;13.70;75.80;;;13.05;61.77;95142.41;5000142;28;20224;-81
2021/09/25 04:53:45;;;;;;;6.93;4.03;;;13.70;76.00;;;12.97;61.85;95139.97;5019419;28;20219;-81
2021/09/25 04:56:13;;;;;;;4.72;4.13;;;13.50;75.80;;;12.93;62.15;95141.41;5051836;28;20313;-81
2021/09/25 04:58:40;;;;;;;4.47;4.07;;;13.50;75.80;;;12.87;62.27;95150.09;5035651;28;20200;-81
2021/09/25 05:01:07;;;;;;;6.72;3.85;;;13.50;75.90;;;12.81;62.31;95149.88;5035605;28;20223;-81
2021/09/25 05:03:34;;;;;;;4.88;4.28;;;13.40;76.00;;;12.76;62.46;95151.50;5048480;28;20207;-81
2021/09/25 05:06:02;;;;;;;5.30;3.88;;;13.30;76.20;;;12.74;62.42;95148.25;5031796;28;20589;-81
2021/09/25 05:08:29;;;;;;;4.60;4.20;;;13.30;76.30;;;12.72;62.52;95148.44;5031994;28;20212;-81
2021/09/25 05:10:57;;;;;;;4.38;3.97;;;13.30;76.40;;;12.69;62.70;95155.94;5047543;28;20228;-81
2021/09/25 05:13:24;;;;;;;4.20;3.80;;;13.20;76.50;;;12.69;62.58;95167.25;5031464;28;20188;-81
2021/09/25 05:15:52;;;;;;;5.65;4.32;;;13.20;76.60;;;12.69;62.77;95164.63;5015271;28;20228;-81
2021/09/25 05:18:19;;;;;;;4.95;3.90;;;13.10;76.70;;;12.70;62.61;95160.97;5032020;28;20271;-81
2021/09/25 05:20:46;;;;;;;4.88;4.00;;;13.10;76.80;;;12.65;62.72;95151.03;5017570;28;20694;-81
2021/09/25 05:23:14;;;;;;;4.07;3.67;;;13.10;76.80;;;12.71;62.74;95165.25;5032185;28;20199;-81
2021/09/25 05:25:41;;;;;;;6.65;4.70;;;13.10;76.80;;;12.74;62.73;95170.13;5051876;28;20294;-81
2021/09/25 05:28:09;;;;;;;5.32;4.30;;;13.10;76.80;;;12.77;62.74;95168.91;5049802;28;20274;-81
2021/09/25 05:30:37;;;;;;;5.18;4.47;;;13.10;76.80;;;12.80;62.78;95165.88;5018238;28;20284;-82
2021/09/25 05:33:09;;;;;;;5.35;4.40;;;13.10;76.80;;;12.80;62.90;95161.44;5051288;28;20195;-81
2021/09/25 05:35:37;;;;;;;5.60;4.78;;;13.10;77.30;;;12.88;62.97;95165.69;5052129;28;20742;-82
2021/09/25 05:38:04;;;;;;;5.78;5.18;;;13.10;76.90;;;12.93;62.88;95168.53;5049005;28;20244;-81
2021/09/25 05:40:31;;;;;;;4.90;4.38;;;13.20;77.30;;;12.99;63.00;95169.56;5050988;28;20739;-82
2021/09/25 05:42:58;;;;;;;5.47;4.50;;;13.30;77.40;;;13.02;62.97;95158.59;5050222;28;20192;-81
2021/09/25 05:45:25;;;;;;;5.55;3.88;;;13.30;77.60;;;13.14;62.90;95169.38;5039236;28;20661;-81
2021/09/25 05:47:53;;;;;;;7.35;4.88;;;13.30;77.80;;;13.22;63.22;95173.63;5026931;28;20200;-81
2021/09/25 05:50:21;;;;;;;5.13;4.60;;;13.40;78.00;;;13.29;63.41;95177.88;5033371;28;20314;-81
2021/09/25 05:52:49;;;;;;;6.25;4.38;;;13.40;78.10;;;13.33;63.18;95157.22;5048036;28;20198;-81
2021/09/25 05:55:16;;;;;;;6.47;4.43;;;13.50;78.20;;;13.48;63.41;95164.94;5048264;28;20223;-80
2021/09/25 05:57:43;;;;;;;4.78;4.25;;;13.50;78.40;;;13.57;63.50;95169.00;5051187;28;20241;-81
2021/09/25 06:00:12;;;;;;;5.20;4.50;;;13.60;78.60;;;13.68;63.35;95174.66;5067703;28;20223;-81
2021/09/25 06:02:41;;;;;;;4.70;4.13;;;13.70;78.80;;;13.74;63.46;95171.19;5017838;28;20216;-81
2021/09/25 06:05:10;;;;;;;6.20;4.20;;;13.70;78.90;;;13.89;63.59;95170.97;5031413;28;20261;-82
2021/09/25 06:07:41;;;;;;;4.95;4.45;;;13.80;79.00;;;13.99;63.37;95181.09;5014776;28;20222;-79
2021/09/25 06:10:11;;;;;;;4.70;4.30;;;13.90;79.10;;;14.10;63.38;95183.13;5034109;28;20199;-77
2021/09/25 06:12:41;;;;;;;4.68;4.15;;;14.00;79.20;;;14.19;63.31;95181.06;5021281;28;20208;-78
2021/09/25 06:15:11;;;;;;;5.43;4.85;;;14.10;79.20;;;14.29;63.57;95183.25;5032886;28;20180;-78
2021/09/25 06:17:38;;;;;;;4.82;4.32;;;14.20;79.40;;;14.39;63.65;95173.88;5047694;28;20231;-78
2021/09/25 06:20:10;;;;;;;4.68;4.22;;;14.30;79.40;;;14.49;63.50;95176.06;5041234;28;20257;-77
2021/09/25 06:22:39;;;;;;;5.03;4.45;;;14.40;79.70;;;14.62;63.72;95180.47;5032491;28;20202;-78
2021/09/25 06:25:08;;;;;;;5.68;5.05;;;14.50;79.60;;;14.71;63.67;95175.81;5038651;28;20213;-79
2021/09/25 06:27:37;;;;;;;5.50;4.78;;;14.60;79.60;;;14.82;63.61;95176.97;5020636;28;20572;-79
2021/09/25 06:30:07;;;;;;;8.43;5.20;;;14.70;79.60;;;14.92;63.78;95174.66;5023579;28;20257;-79
2021/09/25 06:32:35;;;;;;;7.72;4.65;;;14.70;79.70;;;15.02;63.72;95180.28;5026016;28;20310;-79
2021/09/25 06:35:07;;;;;;;6.28;5.07;;;14.90;79.70;;;15.13;63.52;95181.44;5035353;28;20208;-79
2021/09/25 06:37:34;;;;;;;5.50;5.00;;;14.90;79.60;;;15.25;63.49;95178.13;5034982;28;20297;-79
2021/09/25 06:40:01;;;;;;;5.63;5.13;;;15.10;79.70;;;15.35;63.48;95176.59;5018214;28;20210;-80
2021/09/25 06:42:28;;;;;;;7.88;6.50;;;15.10;79.60;;;15.43;63.67;95172.06;5035203;28;20212;-78
2021/09/25 06:44:55;;;;;;;6.95;6.22;;;15.20;79.50;;;15.58;63.31;95179.69;5049550;28;20199;-79
2021/09/25 06:47:22;;;;;;;6.30;5.55;;;15.30;79.60;;;15.69;63.24;95179.78;5034151;28;20252;-79
2021/09/25 06:49:50;;;;;;;7.57;5.88;;;15.50;79.60;;;15.82;63.65;95180.72;5044598;28;20679;-80
2021/09/25 06:52:17;;;;;;;7.07;6.05;;;15.50;79.50;;;15.91;63.40;95175.97;5054372;28;20253;-79
2021/09/25 06:54:44;;;;;;;7.93;6.18;;;15.60;79.20;;;16.08;63.02;95184.16;5033969;28;20247;-79
2021/09/25 06:57:11;;;;;;;6.38;5.75;;;15.80;79.50;;;16.23;62.96;95183.78;5034310;28;20256;-79
2021/09/25 06:59:38;;;;;;;7.32;6.25;;;16.00;79.60;;;16.35;62.86;95178.56;5018231;28;20200;-80
2021/09/25 07:02:06;;;;;;;8.63;5.95;;;16.00;79.50;;;16.47;62.87;95180.25;5028384;28;20211;-79
2021/09/25 07:04:34;;;;;;;6.93;6.32;;;16.10;79.40;;;16.60;62.99;95173.97;5049988;28;20689;-79
2021/09/25 07:07:02;;;;;;;8.00;6.38;;;16.20;79.40;;;16.72;62.63;95189.94;5017579;28;20219;-79
2021/09/25 07:09:30;;;;;;;8.25;6.45;;;16.30;79.10;;;16.83;62.42;95183.03;5017948;28;20188;-80
2021/09/25 07:11:57;;;;;;;6.95;6.25;;;16.50;79.20;;;16.93;61.80;95188.66;5017029;28;20220;-79
2021/09/25 07:14:24;;;;;;;6.75;5.78;;;16.70;79.20;;;17.09;61.88;95187.22;5034634;28;20256;-80
2021/09/25 07:16:51;;;;;;;6.93;6.03;;;16.70;78.90;;;17.22;61.83;95188.88;5056428;28;20215;-79
2021/09/25 07:19:19;;;;;;;7.78;5.45;;;16.90;78.70;;;17.32;61.37;95185.66;5020973;28;20190;-79
2021/09/25 07:21:46;;;;;;;7.30;5.88;;;17.00;78.70;;;17.47;60.63;95187.06;5046561;28;20758;-78
2021/09/25 07:24:13;;;;;;;8.85;6.15;;;17.10;78.40;;;17.58;61.20;95188.94;5021725;28;20283;-81
2021/09/25 07:26:41;;;;;;;8.15;6.15;;;17.30;78.20;;;17.69;60.77;95187.34;5036167;28;20237;-79
2021/09/25 07:29:39;;;;;;;7.55;6.30;;;17.30;77.90;;;17.76;60.16;95182.72;5035108;28;20203;-80
2021/09/25 07:32:07;;;;;;;7.07;6.38;;;17.40;77.30;;;17.89;60.53;95187.00;5023427;28;20256;-79
2021/09/25 07:34:35;;;;;;;6.50;5.80;;;17.60;77.50;;;17.98;60.46;95187.47;5031409;28;20208;-80
2021/09/25 07:37:02;;;;;;;6.43;5.68;;;17.70;77.40;;;18.06;60.41;95193.22;5041267;28;20580;-80
2021/09/25 07:39:33;;;;;;;7.78;6.07;;;17.70;77.40;;;18.16;59.81;95194.50;5053645;28;20249;-79
2021/09/25 07:42:01;;;;;;;9.43;6.55;;;17.80;77.20;;;18.27;59.60;95190.22;5034910;28;20715;-79
2021/09/25 07:44:28;;;;;;;7.25;6.32;;;17.90;77.00;;;18.31;59.31;95197.50;5037074;28;20192;-79
2021/09/25 07:46:56;;;;;;;7.03;5.57;;;18.00;77.60;;;18.40;59.44;95195.28;5035858;28;20728;-79
2021/09/25 07:49:23;;;;;;;7.65;5.70;;;18.10;76.70;;;18.48;59.70;95188.78;5022879;28;20199;-79
2021/09/25 07:51:50;;;;;;;7.85;5.80;;;18.30;76.80;;;18.55;59.32;95181.50;5053257;28;20717;-81
2021/09/25 07:54:17;;;;;;;6.32;5.47;;;18.30;76.70;;;18.61;59.59;95183.22;5034833;28;20199;-78
2021/09/25 07:56:45;;;;;;;5.55;5.05;;;18.30;76.70;;;18.74;58.88;95192.78;5047105;28;20719;-80
2021/09/25 07:59:12;;;;;;;7.00;5.90;;;18.40;76.80;;;18.82;59.18;95199.56;5016198;28;20196;-79
2021/09/25 08:01:39;;;;;;;6.40;5.80;;;18.60;76.60;;;18.92;58.91;95201.63;5050401;28;20273;-80
2021/09/25 08:04:07;;;;;;;5.90;5.30;;;18.60;76.40;;;19.00;59.35;95194.06;5033107;28;20217;-80
2021/09/25 08:06:34;;;;;;;7.07;5.97;;;18.60;76.50;;;19.09;58.64;95193.69;5048636;28;20333;-81
2021/09/25 08:09:02;;;;;;;7.28;5.97;;;18.80;76.30;;;19.19;58.87;95202.66;5017908;28;20246;-81
2021/09/25 08:11:29;;;;;;;7.25;5.70;;;18.90;76.30;;;19.27;58.79;95196.16;5048512;28;20223;-80
2021/09/25 08:13:56;;;;;;;6.85;6.20;;;19.00;76.20;;;19.38;57.27;95204.31;5017295;28;20214;-81
2021/09/25 08:16:24;;;;;;;8.15;6.05;;;19.00;75.60;;;19.45;57.12;95203.09;5032114;28;20226;-80
2021/09/25 08:18:51;;;;;;;6.72;5.68;;;19.00;75.40;;;19.57;57.41;95203.03;5032405;28;20712;-80
2021/09/25 08:21:20;;;;;;;7.00;6.30;;;19.20;75.50;;;19.65;56.74;95207.16;5042083;28;20705;-80
2021/09/25 08:23:47;;;;;;;7.60;6.53;;;19.30;75.10;;;19.74;56.44;95216.34;5030846;28;20198;-81
2021/09/25 08:26:15;;;;;;;7.53;5.85;;;19.30;74.80;;;19.81;56.56;95203.69;5035038;28;20219;-80
2021/09/25 08:28:42;;;;;;;6.07;5.47;;;19.40;75.00;;;19.90;56.66;95198.00;5052283;28;20231;-80
2021/09/25 08:31:10;;;;;;;6.68;5.32;;;19.60;74.90;;;20.02;56.73;95203.22;5033834;28;20247;-81
2021/09/25 08:33:37;;;;;;;7.07;5.47;;;19.60;74.90;;;20.12;56.67;95203.38;5036072;28;20211;-81
2021/09/25 08:36:04;;;;;;;6.25;5.53;;;19.70;74.90;;;20.19;56.49;95193.34;5051985;28;20218;-79
2021/09/25 08:38:31;;;;;;;6.57;5.35;;;19.80;75.00;;;20.33;56.72;95208.97;5050867;28;20219;-79
2021/09/25 08:40:59;;;;;;;5.90;5.30;;;19.80;74.80;;;20.41;56.47;95192.53;5049844;28;20215;-79
2021/09/25 08:43:27;;;;;;;6.70;5.80;;;19.90;75.00;;;20.54;55.94;95204.72;5019076;28;20195;-79
2021/09/25 08:46:04;;;;;;;6.50;5.43;;;20.00;74.70;;;20.63;56.04;95195.25;5015336;28;20270;-78
2021/09/25 08:48:34;;;;;;;6.80;5.65;;;20.10;74.20;;;20.73;56.12;95191.91;5043604;28;20220;-80
2021/09/25 08:51:02;;;;;;;6.22;5.63;;;20.20;74.00;;;20.78;53.75;95187.44;5034034;28;20239;-79
2021/09/25 08:53:29;;;;;;;6.20;5.32;;;20.30;73.00;;;20.85;53.78;95195.25;5002973;28;20187;-79
2021/09/25 08:55:57;;;;;;;7.07;5.85;;;20.40;72.70;;;20.91;53.57;95196.09;5016868;28;20227;-80
2021/09/25 08:58:24;;;;;;;6.50;5.82;;;20.50;72.50;;;20.97;53.70;95197.78;5038602;28;20304;-80
2021/09/25 09:00:53;;;;;;;6.28;5.68;;;20.60;72.40;;;21.04;52.41;95201.03;5022182;28;20215;-81
2021/09/25 09:03:37;;;;;;;6.78;5.13;;;20.60;71.70;;;21.12;53.19;95205.13;5036790;28;20195;-80
2021/09/25 09:06:19;;;;;;;5.90;5.30;;;20.70;71.80;;;21.16;52.63;95200.91;5019317;28;20219;-79
2021/09/25 09:08:50;;;;;;;6.88;6.20;;;20.80;71.80;;;21.21;51.79;95195.59;5050850;28;20195;-78
2021/09/25 09:11:22;;;;;;;6.60;5.53;;;20.80;71.10;;;21.26;52.54;95186.84;5049307;28;20215;-79
2021/09/25 09:13:59;;;;;;;5.70;4.55;;;20.90;71.20;;;21.39;52.89;95186.44;5035259;28;20199;-80
2021/09/25 09:16:28;;;;;;;9.45;5.07;;;21.00;71.40;;;21.50;53.01;95192.69;5050564;28;20573;-80
2021/09/25 09:18:58;;;;;;;5.60;4.47;;;21.00;71.50;;;21.63;52.81;95188.81;5034825;28;20203;-79
2021/09/25 09:21:34;;;;;;;5.88;4.90;;;21.20;71.50;;;21.72;51.90;95183.81;5050692;28;20216;-80
2021/09/25 09:24:07;;;;;;;5.28;4.78;;;21.20;71.00;;;21.84;52.27;95179.09;5048241;28;20301;-80
2021/09/25 09:26:38;;;;;;;6.20;4.78;;;21.30;71.30;;;21.94;52.86;95177.56;5031768;28;20246;-81
2021/09/25 09:29:09;;;;;;;5.03;4.47;;;21.40;71.50;;;22.05;52.90;95184.56;5065721;28;20638;-80
2021/09/25 09:31:38;;;;;;;4.75;4.28;;;21.50;71.30;;;22.15;52.19;95176.59;5046520;28;20304;-80
2021/09/25 09:34:08;;;;;;;5.25;4.40;;;21.60;71.30;;;22.24;52.33;95179.63;5000118;28;20297;-80
2021/09/25 09:36:38;;;;;;;4.55;4.15;;;21.70;71.50;;;22.34;52.19;95173.53;5031515;28;20228;-80
2021/09/25 09:39:19;;;;;;;4.70;4.30;;;21.70;70.90;;;22.42;52.28;95180.25;5048195;28;20239;-80
2021/09/25 09:41:58;;;;;;;5.57;4.63;;;21.80;70.40;;;22.45;50.39;95188.56;5031175;28;20234;-80
2021/09/25 09:44:31;;;;;;;5.40;4.90;;;21.90;69.70;;;22.45;49.79;95180.53;5031469;28;20223;-81
2021/09/25 09:47:08;;;;;;;4.40;4.00;;;22.00;68.90;;;22.51;50.02;95182.19;5028847;28;20231;-80
2021/09/25 09:49:41;;;;;;;4.85;4.35;;;22.10;69.20;;;22.55;50.65;95177.13;5010784;28;20286;-81
2021/09/25 09:52:14;;;;;;;4.70;4.30;;;22.10;69.50;;;22.62;51.06;95169.66;5030858;28;20230;-81
2021/09/25 09:54:44;;;;;;;5.72;4.20;;;22.10;69.20;;;22.69;50.15;95172.91;5015909;28;20259;-80
2021/09/25 09:57:16;;;;;;;5.30;4.80;;;22.20;69.80;;;22.75;49.72;95173.69;5034252;28;20225;-80
2021/09/25 09:59:44;;;;;;;5.55;4.63;;;22.20;68.70;;;22.80;49.74;95183.63;5046768;28;20250;-81
2021/09/25 10:02:12;;;;;;;4.50;4.10;;;22.30;68.90;;;22.84;49.67;95179.38;5023001;28;20232;-80
2021/09/25 10:04:41;;;;;;;6.93;4.82;;;22.40;69.00;;;22.85;48.55;95173.75;5034466;28;20228;-81
2021/09/25 10:07:09;;;;;;;5.55;5.05;;;22.40;68.20;;;22.90;48.95;95177.50;5026283;28;20222;-80
2021/09/25 10:09:40;;;;;;;4.53;4.13;;;22.50;68.20;;;22.92;49.22;95172.69;5043957;28;20632;-81
2021/09/25 10:12:16;;;;;;;4.90;4.30;;;22.50;68.30;;;22.98;49.63;95176.97;5046143;28;20273;-79
2021/09/25 10:14:46;;;;;;;5.25;4.75;;;22.60;68.70;;;23.02;48.38;95167.34;5051000;28;20208;-79
2021/09/25 10:17:16;;;;;;;4.72;4.32;;;22.60;67.70;;;23.09;49.44;95172.47;5014759;28;20224;-80
2021/09/25 10:19:45;;;;;;;6.47;4.80;;;22.60;68.00;;;23.13;48.41;95181.56;5030918;28;20245;-81
2021/09/25 10:22:19;;;;;;;5.00;4.50;;;22.70;67.70;;;23.18;48.09;95176.25;5030807;28;20223;-80
2021/09/25 10:24:59;;;;;;;4.72;4.13;;;22.70;67.30;;;23.22;48.55;95163.94;5031073;28;20190;-80
2021/09/25 10:27:39;;;;;;;5.35;4.53;;;22.80;67.30;;;23.27;48.36;95165.84;5050734;28;20249;-80